Time;durP1;ratioP1;P1;durP2;ratioP2;P2;SDS_P1;SDS_P2;PMS_P1;PMS_P2;Temp;Humidity;BMP_temperature;BMP_pressure;BME280_temperature;BME280_humidity;BME280_pressure;Samples;Min_cycle;Max_cycle;Signal;HPM_P1;HPM_P2
2023/04/19 00:00:22;;;;;;;2.60;0.60;;;10.70;99.90;;;;;;4941980;28;20230;-64
2023/04/19 00:02:50;;;;;;;0.60;0.40;;;10.70;99.90;;;;;;4948176;28;20204;-63
2023/04/19 00:05:21;;;;;;;0.70;0.68;;;10.70;99.90;;;;;;4948209;28;20207;-63
2023/04/19 00:07:49;;;;;;;0.90;0.90;;;10.70;99.90;;;;;;4941387;28;20302;-63
2023/04/19 00:10:17;;;;;;;0.80;0.52;;;10.70;99.90;;;;;;4933824;28;20232;-63
2023/04/19 00:12:46;;;;;;;1.35;1.23;;;10.70;99.90;;;;;;4941181;28;20295;-63
2023/04/19 00:15:14;;;;;;;1.02;0.73;;;10.70;99.90;;;;;;4941268;28;20211;-63
2023/04/19 00:17:42;;;;;;;0.80;0.60;;;10.70;99.90;;;;;;4934154;28;20298;-63
2023/04/19 00:20:11;;;;;;;0.60;0.60;;;10.70;99.90;;;;;;4933852;28;20586;-63
2023/04/19 00:22:39;;;;;;;0.60;0.57;;;10.70;99.90;;;;;;4934076;28;20946;-63
2023/04/19 00:25:08;;;;;;;0.60;0.50;;;10.70;99.90;;;;;;4933795;28;20212;-63
2023/04/19 00:27:36;;;;;;;0.80;0.80;;;10.70;99.90;;;;;;4934869;29;20253;-63
2023/04/19 00:30:06;;;;;;;0.77;0.77;;;10.80;99.90;;;;;;4937325;28;20263;-63
2023/04/19 00:32:34;;;;;;;1.27;1.17;;;10.80;99.90;;;;;;4943843;28;20228;-63
2023/04/19 00:35:03;;;;;;;1.00;0.70;;;10.80;99.90;;;;;;4942055;28;20215;-64
2023/04/19 00:37:31;;;;;;;0.60;0.40;;;10.70;99.90;;;;;;4949414;28;20267;-63
2023/04/19 00:39:59;;;;;;;0.70;0.60;;;10.80;99.90;;;;;;4933586;28;20248;-63
2023/04/19 00:42:27;;;;;;;2.75;1.13;;;10.70;99.90;;;;;;4933723;28;20240;-62
2023/04/19 00:44:55;;;;;;;0.88;0.60;;;10.70;99.90;;;;;;4926342;29;20219;-63
2023/04/19 00:47:24;;;;;;;1.60;0.70;;;10.70;99.90;;;;;;4933578;28;20267;-63
2023/04/19 00:49:52;;;;;;;0.70;0.70;;;10.70;99.90;;;;;;4940914;28;20235;-63
2023/04/19 00:52:21;;;;;;;0.82;0.80;;;10.70;99.90;;;;;;4933599;28;20582;-63
2023/04/19 00:54:49;;;;;;;0.55;0.40;;;10.70;99.90;;;;;;4933792;28;20212;-63
2023/04/19 00:57:18;;;;;;;0.98;0.73;;;10.70;99.90;;;;;;4933298;28;20265;-62
2023/04/19 00:59:46;;;;;;;1.02;1.02;;;10.70;99.90;;;;;;4933417;28;20228;-64
2023/04/19 01:02:14;;;;;;;1.00;0.90;;;10.70;99.90;;;;;;4933531;28;20207;-63
2023/04/19 01:04:44;;;;;;;0.70;0.60;;;10.80;99.90;;;;;;4939131;28;20314;-63
2023/04/19 01:07:13;;;;;;;0.70;0.70;;;10.70;99.90;;;;;;4950320;28;20621;-63
2023/04/19 01:09:42;;;;;;;0.82;0.70;;;10.70;99.90;;;;;;4946314;28;20215;-63
2023/04/19 01:12:10;;;;;;;0.70;0.60;;;10.70;99.90;;;;;;4949500;28;20306;-63
2023/04/19 01:14:39;;;;;;;0.80;0.70;;;10.70;99.90;;;;;;4943974;28;20208;-63
2023/04/19 01:17:08;;;;;;;0.90;0.70;;;10.80;99.90;;;;;;4937364;28;20235;-63
2023/04/19 01:19:37;;;;;;;1.23;0.80;;;10.70;99.90;;;;;;4946269;28;20208;-63
2023/04/19 01:22:06;;;;;;;1.35;0.90;;;10.70;99.90;;;;;;4937291;28;20270;-63
2023/04/19 01:24:35;;;;;;;0.82;0.65;;;10.70;99.90;;;;;;4944877;28;20749;-64
2023/04/19 01:27:04;;;;;;;0.70;0.70;;;10.70;99.90;;;;;;4937389;28;20270;-64
2023/04/19 01:29:34;;;;;;;0.93;0.73;;;10.80;99.90;;;;;;4931320;29;20207;-64
2023/04/19 01:32:02;;;;;;;0.98;0.80;;;10.70;99.90;;;;;;4941262;28;20216;-63
2023/04/19 01:34:30;;;;;;;1.23;0.95;;;10.70;99.90;;;;;;4945055;28;20211;-64
2023/04/19 01:36:58;;;;;;;1.00;0.82;;;10.70;99.90;;;;;;4956153;28;20679;-64
2023/04/19 01:39:26;;;;;;;0.75;0.73;;;10.70;99.90;;;;;;4939634;28;20216;-64
2023/04/19 01:41:55;;;;;;;1.08;0.82;;;10.60;99.90;;;;;;4936559;29;20219;-64
2023/04/19 01:44:31;;;;;;;0.70;0.70;;;10.60;99.90;;;;;;4936764;29;20696;-64
2023/04/19 01:47:07;;;;;;;1.15;1.05;;;10.60;99.90;;;;;;4933292;29;20231;-64
2023/04/19 01:49:47;;;;;;;1.13;1.08;;;10.50;99.90;;;;;;4929613;29;20267;-62
2023/04/19 01:52:14;;;;;;;0.98;0.70;;;10.60;99.90;;;;;;4936235;29;20640;-62
2023/04/19 01:54:42;;;;;;;1.10;0.85;;;10.60;99.90;;;;;;4936483;29;20239;-62
2023/04/19 01:57:12;;;;;;;0.70;0.70;;;10.60;99.90;;;;;;4936437;29;20218;-62
2023/04/19 01:59:40;;;;;;;2.55;1.50;;;10.50;99.90;;;;;;4936275;29;20208;-62
2023/04/19 02:02:08;;;;;;;0.80;0.63;;;10.60;99.90;;;;;;4936670;29;20574;-63
2023/04/19 02:04:36;;;;;;;0.80;0.80;;;10.60;99.90;;;;;;4936418;29;20200;-62
2023/04/19 02:07:04;;;;;;;1.80;1.25;;;10.60;99.90;;;;;;4936470;29;20720;-62
2023/04/19 02:09:35;;;;;;;0.75;0.70;;;10.60;99.90;;;;;;4936290;29;20587;-62
2023/04/19 02:12:03;;;;;;;1.65;1.52;;;10.60;99.90;;;;;;4936408;29;20299;-63
2023/04/19 02:14:33;;;;;;;1.63;1.00;;;10.50;99.90;;;;;;4931539;29;20251;-62
2023/04/19 02:17:20;;;;;;;1.13;1.13;;;10.60;99.90;;;;;;4935533;29;20215;-62
2023/04/19 02:19:52;;;;;;;1.40;1.27;;;10.50;99.90;;;;;;4917458;29;20263;-63
2023/04/19 02:22:20;;;;;;;1.35;0.57;;;10.50;99.90;;;;;;4932804;29;20761;-63
2023/04/19 02:24:50;;;;;;;1.00;0.90;;;10.50;99.90;;;;;;4935841;29;20259;-63
2023/04/19 02:27:18;;;;;;;1.17;1.08;;;10.50;99.90;;;;;;4928900;29;20304;-62
2023/04/19 02:29:47;;;;;;;1.75;1.63;;;10.40;99.90;;;;;;4924467;29;20314;-63
2023/04/19 02:32:15;;;;;;;1.25;1.15;;;10.40;99.90;;;;;;4932266;29;20210;-63
2023/04/19 02:34:43;;;;;;;0.95;0.82;;;10.50;99.90;;;;;;4936837;29;20663;-63
2023/04/19 02:37:11;;;;;;;1.55;1.05;;;10.40;99.90;;;;;;4924662;29;20208;-63
2023/04/19 02:39:40;;;;;;;1.00;1.00;;;10.50;99.90;;;;;;4921664;29;20865;-63
2023/04/19 02:42:08;;;;;;;1.55;0.95;;;10.50;99.90;;;;;;4947762;28;20652;-63
2023/04/19 02:44:36;;;;;;;1.15;0.80;;;10.40;99.90;;;;;;4944122;28;20209;-63
2023/04/19 02:47:06;;;;;;;1.20;1.15;;;10.40;99.90;;;;;;4943648;28;20238;-63
2023/04/19 02:49:35;;;;;;;1.55;1.27;;;10.50;99.90;;;;;;4946274;28;20306;-63
2023/04/19 02:52:03;;;;;;;1.40;1.25;;;10.50;99.90;;;;;;4949447;28;20272;-62
2023/04/19 02:54:32;;;;;;;0.85;0.70;;;10.50;99.90;;;;;;4937707;28;20304;-62
2023/04/19 02:57:00;;;;;;;1.17;1.08;;;10.60;99.90;;;;;;4947234;28;20695;-62
2023/04/19 02:59:29;;;;;;;0.93;0.93;;;10.60;99.90;;;;;;4945924;28;20725;-62
2023/04/19 03:01:57;;;;;;;0.73;0.73;;;10.60;99.90;;;;;;4951497;28;20211;-62
2023/04/19 03:04:27;;;;;;;0.98;0.88;;;10.60;99.90;;;;;;4946037;28;20203;-62
2023/04/19 03:06:55;;;;;;;1.08;0.98;;;10.60;99.90;;;;;;4949176;28;20535;-62
2023/04/19 03:09:23;;;;;;;1.00;0.70;;;10.50;99.90;;;;;;4944508;28;20591;-62
2023/04/19 03:11:52;;;;;;;1.33;1.08;;;10.40;99.90;;;;;;4944473;28;20218;-62
2023/04/19 03:14:19;;;;;;;1.13;0.90;;;10.40;99.90;;;;;;4943434;28;20232;-62
2023/04/19 03:16:47;;;;;;;0.90;0.90;;;10.50;99.90;;;;;;4948628;28;20702;-63
2023/04/19 03:19:15;;;;;;;1.15;1.05;;;10.40;99.90;;;;;;4943507;28;20673;-62
2023/04/19 03:21:45;;;;;;;0.82;0.82;;;10.40;99.90;;;;;;4933252;28;20236;-62
2023/04/19 03:24:27;;;;;;;1.13;1.00;;;10.50;99.90;;;;;;4943011;28;20222;-63
2023/04/19 03:26:55;;;;;;;1.33;1.23;;;10.40;99.90;;;;;;4938801;28;20687;-63
2023/04/19 03:29:23;;;;;;;2.63;1.42;;;10.40;99.90;;;;;;4935029;28;20217;-63
2023/04/19 03:31:51;;;;;;;1.55;1.17;;;10.40;99.90;;;;;;4941774;28;20243;-63
2023/04/19 03:34:19;;;;;;;3.45;1.05;;;10.50;99.90;;;;;;4936189;28;20656;-63
2023/04/19 03:36:48;;;;;;;0.60;0.52;;;10.50;99.90;;;;;;4953452;28;20207;-62
2023/04/19 03:39:16;;;;;;;1.95;1.58;;;10.50;99.90;;;;;;4941033;28;20235;-63
2023/04/19 03:41:44;;;;;;;1.27;0.90;;;10.50;99.90;;;;;;4932151;28;20242;-63
2023/04/19 03:44:12;;;;;;;1.95;1.25;;;10.60;99.90;;;;;;4941276;28;20202;-62
2023/04/19 03:46:40;;;;;;;0.80;0.73;;;10.60;99.90;;;;;;4945606;28;20242;-62
2023/04/19 03:49:08;;;;;;;1.00;0.90;;;10.60;99.90;;;;;;4950653;28;20211;-62
2023/04/19 03:51:36;;;;;;;1.05;0.93;;;10.50;99.90;;;;;;4938845;28;20310;-62
2023/04/19 03:54:05;;;;;;;2.00;1.55;;;10.50;99.90;;;;;;4940693;28;20274;-62
2023/04/19 03:56:33;;;;;;;1.50;1.40;;;10.50;99.90;;;;;;4942323;28;20302;-62
2023/04/19 03:59:02;;;;;;;1.00;0.77;;;10.40;99.90;;;;;;4942038;28;20207;-62
2023/04/19 04:01:30;;;;;;;0.90;0.90;;;10.30;99.90;;;;;;4944525;28;20849;-62
2023/04/19 04:03:58;;;;;;;2.15;1.98;;;10.20;99.90;;;;;;4948111;28;20253;-62
2023/04/19 04:06:29;;;;;;;0.85;0.75;;;10.00;99.90;;;;;;4938718;28;20702;-63
2023/04/19 04:08:56;;;;;;;1.90;1.40;;;9.90;99.90;;;;;;4946911;28;20293;-63
2023/04/19 04:11:26;;;;;;;1.45;1.23;;;10.00;99.90;;;;;;4939940;28;20687;-62
2023/04/19 04:13:54;;;;;;;1.85;1.75;;;10.00;99.90;;;;;;4943650;28;20318;-62
2023/04/19 04:16:22;;;;;;;1.33;1.20;;;10.00;99.90;;;;;;4945317;28;20195;-63
2023/04/19 04:18:51;;;;;;;0.88;0.88;;;10.00;99.90;;;;;;4950496;28;20212;-62
2023/04/19 04:21:19;;;;;;;1.70;1.38;;;10.00;99.90;;;;;;4948656;28;20227;-62
2023/04/19 04:23:48;;;;;;;1.58;1.48;;;10.10;99.90;;;;;;4945128;28;20211;-62
2023/04/19 04:26:18;;;;;;;1.50;1.40;;;10.10;99.90;;;;;;4937351;28;20219;-62
2023/04/19 04:28:48;;;;;;;1.98;1.52;;;10.20;99.90;;;;;;4944956;28;20286;-62
2023/04/19 04:31:16;;;;;;;0.70;0.68;;;10.20;99.90;;;;;;4942137;28;20287;-62
2023/04/19 04:33:45;;;;;;;1.27;0.98;;;10.20;99.90;;;;;;4935757;28;20216;-62
2023/04/19 04:36:14;;;;;;;0.93;0.82;;;10.20;99.90;;;;;;4958049;28;20224;-62
2023/04/19 04:38:42;;;;;;;1.38;1.27;;;10.20;99.90;;;;;;4948591;28;20704;-62
2023/04/19 04:41:11;;;;;;;2.35;2.15;;;10.30;99.90;;;;;;4946541;28;20250;-63
2023/04/19 04:43:39;;;;;;;1.27;1.10;;;10.30;99.90;;;;;;4942735;28;20213;-62
2023/04/19 04:46:08;;;;;;;1.05;0.88;;;10.30;99.90;;;;;;4944391;28;20207;-62
2023/04/19 04:48:36;;;;;;;1.35;1.25;;;10.40;99.90;;;;;;4945888;28;20215;-62
2023/04/19 04:51:04;;;;;;;2.25;1.85;;;10.30;99.90;;;;;;4941463;28;20253;-62
2023/04/19 04:53:32;;;;;;;1.90;1.63;;;10.30;99.90;;;;;;4941139;28;21242;-62
2023/04/19 04:56:00;;;;;;;1.20;1.10;;;10.30;99.90;;;;;;4944417;28;20220;-62
2023/04/19 04:58:30;;;;;;;0.60;0.50;;;10.30;99.90;;;;;;4944527;28;20212;-62
2023/04/19 05:00:58;;;;;;;1.10;1.00;;;10.30;99.90;;;;;;4946491;28;20650;-62
2023/04/19 05:03:27;;;;;;;1.15;1.00;;;10.30;99.90;;;;;;4944374;28;20680;-62
2023/04/19 05:05:56;;;;;;;1.30;1.20;;;10.30;99.90;;;;;;4943005;28;20204;-62
2023/04/19 05:08:25;;;;;;;1.50;1.40;;;10.30;99.90;;;;;;4944186;28;20230;-62
2023/04/19 05:10:53;;;;;;;1.02;1.02;;;10.30;99.90;;;;;;4946796;28;20251;-62
2023/04/19 05:13:21;;;;;;;1.55;1.10;;;10.30;99.90;;;;;;4939066;28;20211;-62
2023/04/19 05:15:49;;;;;;;1.75;1.33;;;10.30;99.90;;;;;;4940665;28;20902;-62
2023/04/19 05:18:16;;;;;;;1.35;1.27;;;10.30;99.90;;;;;;4946840;28;20237;-62
2023/04/19 05:20:46;;;;;;;1.10;0.90;;;10.30;99.90;;;;;;4935400;28;20224;-63
2023/04/19 05:23:14;;;;;;;1.38;1.27;;;10.30;99.90;;;;;;4947825;28;20216;-62
2023/04/19 05:25:42;;;;;;;1.80;1.40;;;10.30;99.90;;;;;;4950226;28;20231;-62
2023/04/19 05:28:10;;;;;;;1.17;1.08;;;10.30;99.90;;;;;;4941746;28;20211;-62
2023/04/19 05:30:38;;;;;;;2.00;1.88;;;10.30;99.90;;;;;;4944900;28;20255;-62
2023/04/19 05:33:06;;;;;;;2.00;1.90;;;10.30;99.90;;;;;;4940406;28;20204;-62
2023/04/19 05:35:34;;;;;;;1.75;1.30;;;10.30;99.90;;;;;;4944554;28;20231;-62
2023/04/19 05:38:03;;;;;;;0.77;0.77;;;10.40;99.90;;;;;;4945035;28;20291;-62
2023/04/19 05:40:31;;;;;;;2.35;1.48;;;10.40;99.90;;;;;;4946848;28;20273;-62
2023/04/19 05:42:58;;;;;;;1.60;1.40;;;10.40;99.90;;;;;;4938827;28;20278;-62
2023/04/19 05:45:26;;;;;;;1.20;1.10;;;10.50;99.90;;;;;;4937977;28;20204;-62
2023/04/19 05:47:55;;;;;;;1.10;0.82;;;10.50;99.90;;;;;;4938835;28;20240;-62
2023/04/19 05:50:23;;;;;;;1.88;1.40;;;10.60;99.90;;;;;;4941503;28;20227;-63
2023/04/19 05:52:50;;;;;;;0.90;0.70;;;10.60;99.90;;;;;;4942810;28;20627;-62
2023/04/19 05:55:20;;;;;;;1.83;1.45;;;10.70;99.90;;;;;;4943160;28;20415;-62
2023/04/19 05:57:48;;;;;;;1.00;0.90;;;10.70;99.90;;;;;;4935266;28;20208;-63
2023/04/19 06:00:16;;;;;;;0.70;0.63;;;10.80;99.90;;;;;;4938585;28;20604;-62
2023/04/19 06:02:44;;;;;;;0.88;0.88;;;10.80;99.90;;;;;;4940824;28;20211;-63
2023/04/19 06:05:12;;;;;;;0.80;0.73;;;10.80;99.90;;;;;;4945816;28;20242;-62
2023/04/19 06:07:40;;;;;;;2.30;2.15;;;10.90;99.90;;;;;;4945844;28;20221;-63
2023/04/19 06:10:22;;;;;;;1.98;1.85;;;10.90;99.90;;;;;;4936563;28;20223;-62
2023/04/19 06:13:00;;;;;;;0.70;0.68;;;10.90;99.90;;;;;;4946552;28;20207;-63
2023/04/19 06:15:29;;;;;;;1.65;1.55;;;10.90;99.90;;;;;;4951826;28;20230;-64
2023/04/19 06:17:57;;;;;;;1.50;1.20;;;10.90;99.90;;;;;;4945995;28;20298;-63
2023/04/19 06:20:26;;;;;;;1.33;0.88;;;11.00;99.90;;;;;;4948602;28;20224;-62
2023/04/19 06:22:54;;;;;;;0.70;0.70;;;11.20;99.90;;;;;;4942232;28;20790;-61
2023/04/19 06:25:24;;;;;;;2.03;1.60;;;11.30;99.90;;;;;;4947642;28;20203;-62
2023/04/19 06:27:52;;;;;;;0.60;0.50;;;11.30;99.90;;;;;;4950652;28;20221;-62
2023/04/19 06:30:20;;;;;;;1.08;0.95;;;11.30;99.90;;;;;;4954187;28;20231;-62
2023/04/19 06:32:48;;;;;;;0.98;0.77;;;11.40;99.90;;;;;;4954809;28;20311;-64
2023/04/19 06:35:16;;;;;;;1.77;1.30;;;11.40;99.90;;;;;;4955053;28;20219;-62
2023/04/19 06:37:44;;;;;;;1.60;1.45;;;11.40;99.90;;;;;;4954754;28;20668;-62
2023/04/19 06:40:12;;;;;;;3.83;1.42;;;11.40;99.90;;;;;;4954853;28;20235;-62
2023/04/19 06:42:41;;;;;;;1.60;1.50;;;11.30;99.90;;;;;;4954803;28;20217;-62
2023/04/19 06:45:10;;;;;;;1.55;0.80;;;11.30;99.90;;;;;;4954730;28;20203;-62
2023/04/19 06:47:38;;;;;;;0.90;0.90;;;11.20;99.90;;;;;;4954763;28;20299;-62
2023/04/19 06:50:07;;;;;;;0.60;0.60;;;11.30;99.90;;;;;;4954853;28;20227;-62
2023/04/19 06:52:35;;;;;;;0.93;0.93;;;11.30;99.90;;;;;;4954871;28;20207;-63
2023/04/19 06:55:03;;;;;;;0.88;0.88;;;11.30;99.90;;;;;;4954485;28;20299;-62
2023/04/19 06:57:31;;;;;;;0.60;0.60;;;11.30;99.90;;;;;;4954806;28;20625;-63
2023/04/19 07:00:00;;;;;;;1.55;1.45;;;11.30;99.90;;;;;;4954349;28;20309;-62
2023/04/19 07:02:28;;;;;;;0.73;0.73;;;11.20;99.90;;;;;;4954608;28;20237;-62
2023/04/19 07:04:56;;;;;;;0.60;0.50;;;11.20;99.90;;;;;;4946802;28;20218;-63
2023/04/19 07:07:23;;;;;;;1.02;0.85;;;11.20;99.90;;;;;;4954305;28;20712;-62
2023/04/19 07:09:51;;;;;;;0.60;0.50;;;11.20;99.90;;;;;;4954393;28;20317;-63
2023/04/19 07:12:19;;;;;;;0.60;0.50;;;11.20;99.90;;;;;;4954665;28;20213;-62
2023/04/19 07:14:47;;;;;;;0.60;0.55;;;11.30;99.90;;;;;;4949475;28;20719;-62
2023/04/19 07:17:17;;;;;;;1.30;1.20;;;11.30;99.90;;;;;;4954247;28;20598;-62
2023/04/19 07:19:47;;;;;;;0.70;0.63;;;11.40;99.90;;;;;;4954377;28;20326;-62
2023/04/19 07:22:15;;;;;;;1.48;1.38;;;11.40;99.90;;;;;;4954306;28;20650;-62
2023/04/19 07:24:43;;;;;;;0.85;0.85;;;11.30;99.90;;;;;;4953951;28;20295;-62
2023/04/19 07:27:13;;;;;;;0.80;0.57;;;11.30;99.90;;;;;;4954441;28;20206;-62
2023/04/19 07:29:41;;;;;;;0.60;0.60;;;11.30;99.90;;;;;;4953569;28;20294;-62
2023/04/19 07:32:09;;;;;;;1.30;1.00;;;11.30;99.90;;;;;;4954083;28;20234;-63
2023/04/19 07:34:40;;;;;;;0.55;0.45;;;11.30;99.90;;;;;;4953800;28;20687;-62
2023/04/19 07:37:08;;;;;;;0.50;0.40;;;11.40;99.90;;;;;;4954047;28;20670;-62
2023/04/19 07:39:36;;;;;;;0.60;0.60;;;11.50;99.90;;;;;;4953619;28;20297;-63
2023/04/19 07:42:03;;;;;;;0.75;0.75;;;11.70;99.90;;;;;;4954330;28;20588;-62
2023/04/19 07:44:32;;;;;;;0.60;0.50;;;11.70;99.90;;;;;;4953868;28;20316;-62
2023/04/19 07:46:59;;;;;;;0.73;0.70;;;11.70;99.90;;;;;;4953901;28;20204;-62
2023/04/19 07:49:32;;;;;;;1.10;0.80;;;11.70;99.90;;;;;;4953897;28;20707;-63
2023/04/19 07:52:02;;;;;;;0.82;0.47;;;11.80;99.90;;;;;;4954146;28;20203;-62
2023/04/19 07:54:31;;;;;;;0.50;0.38;;;11.80;99.90;;;;;;4953734;28;20203;-63
2023/04/19 07:56:58;;;;;;;0.98;0.98;;;11.90;99.90;;;;;;4947909;28;20645;-62
2023/04/19 07:59:26;;;;;;;1.17;1.08;;;12.00;99.90;;;;;;4951747;28;20202;-62
2023/04/19 08:01:54;;;;;;;0.60;0.50;;;12.00;99.90;;;;;;4953219;28;20997;-62
2023/04/19 08:04:22;;;;;;;0.70;0.70;;;12.10;99.90;;;;;;4953084;28;20218;-62
2023/04/19 08:06:51;;;;;;;0.50;0.40;;;12.20;99.90;;;;;;4953136;28;20207;-62
2023/04/19 08:09:21;;;;;;;0.60;0.60;;;12.30;99.90;;;;;;4953438;28;20286;-63
2023/04/19 08:11:48;;;;;;;0.50;0.40;;;12.30;99.90;;;;;;4953399;28;20222;-62
2023/04/19 08:14:16;;;;;;;0.60;0.40;;;12.20;99.90;;;;;;4953146;28;20650;-64
2023/04/19 08:17:04;;;;;;;1.13;1.02;;;12.20;99.90;;;;;;4953213;28;20230;-62
2023/04/19 08:19:52;;;;;;;0.60;0.50;;;12.20;99.90;;;;;;4951717;28;20242;-62
2023/04/19 08:22:20;;;;;;;0.50;0.40;;;12.30;99.90;;;;;;4952642;28;20699;-62
2023/04/19 08:24:51;;;;;;;2.25;0.85;;;12.40;99.90;;;;;;4953142;28;20210;-63
2023/04/19 08:27:19;;;;;;;0.70;0.50;;;12.50;99.90;;;;;;4953037;28;20250;-61
2023/04/19 08:29:47;;;;;;;0.70;0.50;;;12.50;99.90;;;;;;4951088;28;20238;-63
2023/04/19 08:32:15;;;;;;;0.60;0.50;;;12.70;99.90;;;;;;4952586;28;20203;-63
2023/04/19 08:34:43;;;;;;;0.73;0.70;;;12.90;99.90;;;;;;4935743;28;20222;-62
2023/04/19 08:37:11;;;;;;;0.90;0.90;;;13.00;99.90;;;;;;4934049;28;20236;-62
2023/04/19 08:39:39;;;;;;;0.70;0.70;;;13.30;99.90;;;;;;4933183;28;20259;-62
2023/04/19 08:42:09;;;;;;;0.80;0.80;;;13.40;99.90;;;;;;4933875;28;20222;-62
2023/04/19 08:44:58;;;;;;;0.60;0.60;;;13.70;99.90;;;;;;4933647;28;20223;-62
2023/04/19 08:47:46;;;;;;;0.70;0.50;;;13.80;99.90;;;;;;4933417;28;20264;-62
2023/04/19 08:50:27;;;;;;;0.57;0.47;;;13.80;99.90;;;;;;4933609;28;20223;-62
2023/04/19 08:53:08;;;;;;;0.60;0.50;;;13.90;99.90;;;;;;4933866;28;20211;-62
2023/04/19 08:55:42;;;;;;;0.70;0.70;;;14.00;99.90;;;;;;4934854;28;20226;-62
2023/04/19 08:58:31;;;;;;;0.50;0.47;;;14.30;99.90;;;;;;4933412;28;20220;-62
2023/04/19 09:01:19;;;;;;;0.70;0.50;;;14.60;99.90;;;;;;4947256;28;20628;-62
2023/04/19 09:04:04;;;;;;;0.90;0.88;;;14.80;99.90;;;;;;4952542;28;20686;-62
2023/04/19 09:06:52;;;;;;;0.60;0.47;;;15.00;99.90;;;;;;4945902;28;20198;-62
2023/04/19 09:09:22;;;;;;;0.70;0.40;;;14.90;99.90;;;;;;4952169;28;20286;-62
2023/04/19 09:11:53;;;;;;;0.65;0.57;;;14.70;99.90;;;;;;4941675;28;20204;-62
2023/04/19 09:14:22;;;;;;;0.60;0.50;;;14.50;99.90;;;;;;4949707;28;20254;-62
2023/04/19 09:16:51;;;;;;;1.05;0.95;;;14.50;99.90;;;;;;4952427;28;20278;-62
2023/04/19 09:19:19;;;;;;;0.60;0.43;;;14.50;99.90;;;;;;4953240;28;20634;-62
2023/04/19 09:21:52;;;;;;;0.50;0.30;;;14.50;99.90;;;;;;4951297;28;20211;-62
2023/04/19 09:24:37;;;;;;;0.60;0.45;;;14.70;99.90;;;;;;4952344;28;20211;-62
2023/04/19 09:27:27;;;;;;;0.60;0.50;;;14.80;99.90;;;;;;4947546;28;20206;-62
2023/04/19 09:29:58;;;;;;;0.85;0.85;;;15.00;99.90;;;;;;4952101;28;20229;-62
2023/04/19 09:32:26;;;;;;;0.60;0.50;;;15.10;99.90;;;;;;4954352;28;20262;-62
2023/04/19 09:34:56;;;;;;;0.70;0.40;;;15.20;99.90;;;;;;4955972;28;20206;-63
2023/04/19 09:37:25;;;;;;;0.50;0.40;;;15.20;99.90;;;;;;4953351;28;20298;-63
2023/04/19 09:39:56;;;;;;;0.60;0.40;;;15.10;99.90;;;;;;4955671;28;20774;-63
2023/04/19 09:42:23;;;;;;;0.57;0.40;;;15.10;99.90;;;;;;4956219;28;20210;-63
2023/04/19 09:45:13;;;;;;;0.82;0.65;;;15.50;99.90;;;;;;4955744;28;20596;-62
2023/04/19 09:48:06;;;;;;;0.50;0.40;;;15.60;99.90;;;;;;4945009;28;20214;-62
2023/04/19 09:50:35;;;;;;;1.15;1.05;;;15.40;99.90;;;;;;4954669;28;20241;-62
2023/04/19 09:53:21;;;;;;;0.70;0.50;;;15.50;99.90;;;;;;4950503;28;20261;-62
2023/04/19 09:55:49;;;;;;;0.50;0.40;;;15.60;99.90;;;;;;4955744;28;20221;-62
2023/04/19 09:58:28;;;;;;;1.50;0.50;;;15.80;99.90;;;;;;4955791;28;20309;-62
2023/04/19 10:01:18;;;;;;;0.60;0.52;;;15.90;99.90;;;;;;4950539;28;20227;-63
2023/04/19 10:03:48;;;;;;;0.60;0.40;;;16.00;99.90;;;;;;4952325;28;20211;-62
2023/04/19 10:06:19;;;;;;;0.75;0.55;;;16.20;99.90;;;;;;4955868;28;20649;-62
2023/04/19 10:08:50;;;;;;;0.70;0.50;;;16.00;99.90;;;;;;4955656;28;20206;-62
2023/04/19 10:11:20;;;;;;;0.85;0.80;;;16.10;99.90;;;;;;4955614;28;20245;-62
2023/04/19 10:13:50;;;;;;;1.30;1.05;;;16.20;99.90;;;;;;4955864;28;20207;-62
2023/04/19 10:16:19;;;;;;;1.40;0.90;;;16.00;99.90;;;;;;4955474;28;20286;-63
2023/04/19 10:18:48;;;;;;;0.60;0.50;;;15.90;99.90;;;;;;4955249;28;20294;-62
2023/04/19 10:21:16;;;;;;;0.93;0.82;;;15.80;99.90;;;;;;4955483;28;20575;-63
2023/04/19 10:23:44;;;;;;;0.70;0.52;;;15.70;99.90;;;;;;4955243;28;20217;-62
2023/04/19 10:26:12;;;;;;;0.60;0.40;;;15.90;99.90;;;;;;4955078;28;20684;-62
2023/04/19 10:28:41;;;;;;;0.70;0.70;;;16.10;99.90;;;;;;4955261;28;20200;-63
2023/04/19 10:31:12;;;;;;;0.60;0.40;;;16.30;99.90;;;;;;4948631;28;20247;-62
2023/04/19 10:33:42;;;;;;;0.60;0.50;;;16.10;99.90;;;;;;4955135;28;20302;-63
2023/04/19 10:36:14;;;;;;;0.70;0.70;;;15.80;99.90;;;;;;4954545;28;20227;-63
2023/04/19 10:38:46;;;;;;;0.50;0.40;;;15.60;99.90;;;;;;4955014;28;20278;-63
2023/04/19 10:41:14;;;;;;;0.70;0.50;;;15.50;99.90;;;;;;4954798;28;20329;-62
2023/04/19 10:43:46;;;;;;;0.73;0.50;;;15.80;99.90;;;;;;4954484;28;20206;-63
2023/04/19 10:46:16;;;;;;;0.60;0.50;;;15.60;99.90;;;;;;4955013;28;20612;-62
2023/04/19 10:48:53;;;;;;;0.60;0.45;;;15.70;99.90;;;;;;4954687;28;20291;-62
2023/04/19 10:51:27;;;;;;;0.70;0.63;;;15.70;99.90;;;;;;4951433;28;20306;-63
2023/04/19 10:53:57;;;;;;;0.88;0.77;;;16.10;99.90;;;;;;4954887;28;20214;-63
2023/04/19 10:57:00;;;;;;;1.05;0.93;;;16.00;99.90;;;;;;4954631;28;20206;-62
2023/04/19 10:59:33;;;;;;;0.70;0.52;;;15.70;99.90;;;;;;4876847;29;20262;-62
2023/04/19 11:02:02;;;;;;;0.60;0.60;;;15.60;99.90;;;;;;4940974;28;20286;-62
2023/04/19 11:05:00;;;;;;;0.55;0.47;;;15.90;99.90;;;;;;4954880;28;20215;-62
2023/04/19 11:07:28;;;;;;;0.60;0.57;;;16.20;99.90;;;;;;4949054;28;20692;-62
2023/04/19 11:09:56;;;;;;;0.50;0.40;;;16.40;99.90;;;;;;4954450;28;20286;-62
2023/04/19 11:12:24;;;;;;;0.60;0.50;;;16.60;99.90;;;;;;4954304;28;20294;-62
2023/04/19 11:14:53;;;;;;;0.50;0.40;;;16.90;99.90;;;;;;4954491;28;20640;-62
2023/04/19 11:17:24;;;;;;;0.70;0.60;;;16.90;99.90;;;;;;4954409;28;20619;-63
2023/04/19 11:19:57;;;;;;;0.93;0.50;;;17.00;99.60;;;;;;4954218;28;20265;-62
2023/04/19 11:22:31;;;;;;;0.60;0.40;;;17.00;99.90;;;;;;4954138;28;20322;-62
2023/04/19 11:25:05;;;;;;;0.60;0.40;;;17.10;99.50;;;;;;4954526;28;20572;-62
2023/04/19 11:27:34;;;;;;;0.60;0.40;;;17.10;98.80;;;;;;4954187;28;20211;-62
2023/04/19 11:30:04;;;;;;;0.70;0.65;;;17.30;99.50;;;;;;4954005;28;20326;-62
2023/04/19 11:32:32;;;;;;;1.13;0.68;;;17.40;98.30;;;;;;4953800;28;20580;-63
2023/04/19 11:35:06;;;;;;;0.90;0.70;;;17.10;97.60;;;;;;4953989;28;20238;-62
2023/04/19 11:37:37;;;;;;;0.70;0.60;;;17.20;97.50;;;;;;4953902;28;20242;-62
2023/04/19 11:40:07;;;;;;;1.13;0.93;;;17.20;97.30;;;;;;4954290;28;20676;-63
2023/04/19 11:42:35;;;;;;;0.60;0.40;;;17.30;97.20;;;;;;4952472;28;20296;-63
2023/04/19 11:45:03;;;;;;;0.60;0.40;;;17.30;95.90;;;;;;4953774;28;20217;-63
2023/04/19 11:47:35;;;;;;;0.93;0.68;;;17.30;96.20;;;;;;4953750;28;20215;-63
2023/04/19 11:50:30;;;;;;;0.80;0.47;;;17.50;95.80;;;;;;4953700;28;20286;-63
2023/04/19 11:52:59;;;;;;;0.50;0.40;;;17.70;95.20;;;;;;4953562;28;20245;-63
2023/04/19 11:55:32;;;;;;;0.88;0.60;;;17.70;93.20;;;;;;4952899;28;20211;-63
2023/04/19 11:58:00;;;;;;;0.70;0.60;;;17.50;93.20;;;;;;4952917;28;20247;-63
2023/04/19 12:00:30;;;;;;;0.70;0.60;;;17.30;93.50;;;;;;4953806;28;20230;-63
2023/04/19 12:02:59;;;;;;;0.50;0.40;;;17.50;92.20;;;;;;4953252;28;20294;-63
2023/04/19 12:05:27;;;;;;;0.60;0.40;;;17.50;93.30;;;;;;4953710;28;20278;-63
2023/04/19 12:08:05;;;;;;;0.70;0.57;;;17.80;92.30;;;;;;4952863;28;20672;-62
2023/04/19 12:10:34;;;;;;;0.90;0.50;;;18.20;92.10;;;;;;4953441;28;20265;-63
2023/04/19 12:13:16;;;;;;;1.20;0.70;;;18.20;91.20;;;;;;4953046;28;20251;-63
2023/04/19 12:15:45;;;;;;;0.60;0.40;;;18.30;90.80;;;;;;4953561;28;20630;-63
2023/04/19 12:18:13;;;;;;;0.60;0.50;;;18.30;91.00;;;;;;4945125;28;22165;-63
2023/04/19 12:20:45;;;;;;;0.60;0.40;;;18.50;91.20;;;;;;4953334;28;20227;-63
2023/04/19 12:23:14;;;;;;;0.60;0.55;;;18.70;89.90;;;;;;4945650;28;20639;-63
2023/04/19 12:25:44;;;;;;;0.60;0.50;;;18.70;89.50;;;;;;4953386;28;20211;-63
2023/04/19 12:28:13;;;;;;;0.85;0.60;;;18.70;90.30;;;;;;4953053;28;20241;-63
2023/04/19 12:30:42;;;;;;;0.60;0.60;;;18.90;87.80;;;;;;4952994;28;20261;-63
2023/04/19 12:33:10;;;;;;;0.60;0.57;;;19.20;87.30;;;;;;4953204;28;20206;-63
2023/04/19 12:35:39;;;;;;;0.65;0.50;;;19.30;85.50;;;;;;4953291;28;20215;-63
2023/04/19 12:38:08;;;;;;;0.55;0.40;;;18.80;85.00;;;;;;4952563;28;20221;-63
2023/04/19 12:40:37;;;;;;;0.60;0.50;;;18.80;86.20;;;;;;4952853;28;20245;-63
2023/04/19 12:43:07;;;;;;;0.50;0.40;;;18.90;84.70;;;;;;4945819;28;20654;-63
2023/04/19 12:45:35;;;;;;;0.50;0.30;;;18.90;82.70;;;;;;4953069;28;20215;-63
2023/04/19 12:48:03;;;;;;;1.10;0.95;;;18.90;82.10;;;;;;4952698;28;20203;-63
2023/04/19 12:50:31;;;;;;;0.50;0.40;;;18.70;80.60;;;;;;4953022;28;20226;-63
2023/04/19 12:52:59;;;;;;;0.57;0.40;;;18.90;80.00;;;;;;4952410;28;20237;-63
2023/04/19 12:55:27;;;;;;;0.50;0.40;;;18.90;82.10;;;;;;4953409;28;20293;-63
2023/04/19 12:57:56;;;;;;;0.50;0.40;;;19.10;82.50;;;;;;4952305;28;20247;-63
2023/04/19 13:00:24;;;;;;;0.60;0.55;;;19.00;81.80;;;;;;4952597;28;20322;-63
2023/04/19 13:02:52;;;;;;;0.50;0.30;;;19.30;78.90;;;;;;4952277;28;20234;-63